Time;durP1;ratioP1;P1;durP2;ratioP2;P2;SDS_P1;SDS_P2;PMS_P1;PMS_P2;Temp;Humidity;BMP_temperature;BMP_pressure;BME280_temperature;BME280_humidity;BME280_pressure;Samples;Min_cycle;Max_cycle;Signal;HPM_P1;HPM_P2
2021/12/03 00:01:20;;;;;;;4.60;1.80;;;2.70;99.90;;;;;;6311077;22;20030;-74
2021/12/03 00:03:46;;;;;;;8.07;2.00;;;2.70;99.90;;;;;;6310613;22;20019;-72
2021/12/03 00:06:13;;;;;;;11.00;2.22;;;2.70;99.90;;;;;;6311390;22;20304;-72
2021/12/03 00:08:39;;;;;;;4.85;1.10;;;2.70;99.90;;;;;;6311150;22;20019;-72
2021/12/03 00:11:05;;;;;;;8.13;1.50;;;2.70;99.90;;;;;;6283970;22;20041;-72
2021/12/03 00:13:33;;;;;;;9.75;1.58;;;2.70;99.90;;;;;;6311102;22;20023;-72
2021/12/03 00:16:00;;;;;;;8.07;1.60;;;2.70;99.90;;;;;;6310769;22;20015;-72
2021/12/03 00:18:26;;;;;;;4.38;1.63;;;2.70;99.90;;;;;;6283272;22;20019;-72
2021/12/03 00:20:53;;;;;;;11.55;2.35;;;2.70;99.90;;;;;;6310914;22;20113;-73
2021/12/03 00:23:20;;;;;;;7.93;1.70;;;2.70;99.90;;;;;;6310645;22;20311;-73
2021/12/03 00:25:46;;;;;;;3.58;1.33;;;2.60;99.90;;;;;;6310984;22;20030;-72
2021/12/03 00:28:12;;;;;;;8.60;1.80;;;2.70;99.90;;;;;;6310841;22;20023;-72
2021/12/03 00:30:38;;;;;;;6.28;1.42;;;2.70;99.90;;;;;;6310971;22;20062;-72
2021/12/03 00:33:05;;;;;;;8.43;2.15;;;2.60;99.90;;;;;;6310268;22;20447;-72
2021/12/03 00:35:31;;;;;;;9.25;1.40;;;2.70;99.90;;;;;;6310726;22;20019;-72
2021/12/03 00:37:57;;;;;;;7.47;1.27;;;2.70;99.90;;;;;;6310570;22;20023;-72
2021/12/03 00:40:28;;;;;;;7.18;1.95;;;2.80;99.90;;;;;;6310735;22;20019;-72
2021/12/03 00:42:53;;;;;;;6.72;1.27;;;2.80;99.90;;;;;;6310619;22;20023;-72
2021/12/03 00:45:20;;;;;;;5.57;1.70;;;2.80;99.90;;;;;;6310505;22;20023;-72
2021/12/03 00:47:46;;;;;;;10.70;2.67;;;2.90;99.90;;;;;;6310172;22;20071;-72
2021/12/03 00:50:16;;;;;;;4.82;2.40;;;2.90;99.90;;;;;;6310570;22;20047;-73
2021/12/03 00:52:41;;;;;;;8.27;2.17;;;2.80;99.90;;;;;;6310223;22;20408;-72
2021/12/03 00:55:09;;;;;;;5.28;1.27;;;2.90;99.90;;;;;;6283918;22;20015;-72
2021/12/03 00:57:35;;;;;;;6.18;1.52;;;2.90;99.90;;;;;;6310036;22;20447;-72
2021/12/03 01:00:00;;;;;;;5.22;1.92;;;2.80;99.90;;;;;;6310232;22;20008;-72
2021/12/03 01:02:26;;;;;;;9.57;1.80;;;2.80;99.90;;;;;;6310728;22;20078;-73
2021/12/03 01:04:52;;;;;;;4.68;1.70;;;2.80;99.90;;;;;;6310464;22;20412;-72
2021/12/03 01:07:18;;;;;;;5.10;1.52;;;2.80;99.90;;;;;;6310492;22;20015;-72
2021/12/03 01:09:44;;;;;;;7.00;1.60;;;2.90;99.90;;;;;;6310362;22;20019;-73
2021/12/03 01:12:10;;;;;;;8.35;1.52;;;2.80;99.90;;;;;;6310146;22;20016;-72
2021/12/03 01:14:36;;;;;;;4.60;1.35;;;2.80;99.90;;;;;;6309667;22;20011;-72
2021/12/03 01:17:04;;;;;;;5.35;1.65;;;2.80;99.90;;;;;;6296026;22;20027;-73
2021/12/03 01:19:30;;;;;;;8.30;2.95;;;2.80;99.90;;;;;;6309198;22;20026;-72
2021/12/03 01:21:55;;;;;;;8.30;1.73;;;2.80;99.90;;;;;;6310280;22;20011;-73
2021/12/03 01:24:21;;;;;;;4.82;1.75;;;2.80;99.90;;;;;;6309757;22;20030;-74
2021/12/03 01:26:51;;;;;;;9.02;1.48;;;2.80;99.90;;;;;;6283064;22;20019;-72
2021/12/03 01:29:17;;;;;;;6.60;1.33;;;2.80;99.90;;;;;;6256289;22;20388;-73
2021/12/03 01:31:43;;;;;;;6.97;1.83;;;2.80;99.90;;;;;;6310001;22;20090;-73
2021/12/03 01:34:08;;;;;;;8.48;1.40;;;2.80;99.90;;;;;;6310074;22;20300;-73
2021/12/03 01:36:34;;;;;;;8.73;1.63;;;2.80;99.90;;;;;;6310362;22;20068;-73
2021/12/03 01:38:59;;;;;;;8.00;2.25;;;2.80;99.90;;;;;;6283298;22;20015;-72
2021/12/03 01:41:27;;;;;;;10.18;2.00;;;2.80;99.90;;;;;;6310158;22;20084;-73
2021/12/03 01:43:58;;;;;;;10.60;1.83;;;2.80;99.90;;;;;;6309697;22;20362;-72
2021/12/03 01:46:24;;;;;;;7.78;1.45;;;2.80;99.90;;;;;;6309833;22;20019;-73
2021/12/03 01:48:50;;;;;;;6.38;1.40;;;2.90;99.90;;;;;;6309978;22;20030;-72
2021/12/03 01:51:15;;;;;;;9.77;1.70;;;2.90;99.90;;;;;;6310646;22;20011;-72
2021/12/03 01:53:41;;;;;;;8.10;1.52;;;2.80;99.90;;;;;;6282839;22;20019;-73
2021/12/03 01:56:10;;;;;;;7.70;1.52;;;2.90;99.90;;;;;;6309903;22;20050;-72
2021/12/03 01:58:36;;;;;;;6.70;1.88;;;2.90;99.90;;;;;;6309027;22;20442;-73
2021/12/03 02:01:07;;;;;;;7.68;1.50;;;2.90;99.90;;;;;;6309627;22;20030;-73
2021/12/03 02:03:34;;;;;;;7.03;1.77;;;2.90;99.90;;;;;;6309802;22;20030;-73
2021/12/03 02:06:01;;;;;;;10.77;2.20;;;2.90;99.90;;;;;;6309703;22;20015;-72
2021/12/03 02:08:27;;;;;;;9.73;1.30;;;3.00;99.90;;;;;;6309772;22;20026;-72
2021/12/03 02:10:53;;;;;;;7.43;1.90;;;3.00;99.90;;;;;;6309333;22;20015;-73
2021/12/03 02:13:19;;;;;;;6.35;1.30;;;3.10;99.90;;;;;;6309896;22;20311;-72
2021/12/03 02:15:46;;;;;;;4.10;1.25;;;3.00;99.90;;;;;;6309510;22;20033;-74
2021/12/03 02:18:12;;;;;;;11.40;1.83;;;3.10;99.90;;;;;;6309857;22;20098;-72
2021/12/03 02:20:49;;;;;;;5.28;1.60;;;3.10;99.90;;;;;;6309850;22;20019;-72
2021/12/03 02:23:16;;;;;;;9.10;1.40;;;3.10;99.90;;;;;;6309212;22;20015;-74
2021/12/03 02:25:43;;;;;;;6.78;1.50;;;3.20;99.90;;;;;;6282864;22;20656;-72
2021/12/03 02:28:09;;;;;;;7.90;1.40;;;3.20;99.90;;;;;;6309624;22;20026;-73
2021/12/03 02:30:35;;;;;;;8.38;1.60;;;3.20;99.90;;;;;;6309641;22;20308;-73
2021/12/03 02:33:00;;;;;;;4.50;1.38;;;3.20;99.90;;;;;;6309578;22;20011;-73
2021/12/03 02:35:26;;;;;;;10.07;1.60;;;3.20;99.90;;;;;;6309672;22;20396;-73
2021/12/03 02:37:52;;;;;;;4.07;1.00;;;3.20;99.90;;;;;;6309381;22;20342;-74
2021/12/03 02:40:19;;;;;;;7.70;2.20;;;3.20;99.90;;;;;;6309409;22;20076;-73
2021/12/03 02:42:45;;;;;;;4.22;1.58;;;3.20;99.90;;;;;;6309522;22;20277;-73
2021/12/03 02:45:12;;;;;;;2.05;0.90;;;3.20;99.90;;;;;;6309468;22;20031;-72
2021/12/03 02:47:39;;;;;;;6.03;1.52;;;3.20;99.90;;;;;;6309063;22;20102;-72
2021/12/03 02:50:06;;;;;;;6.15;1.00;;;3.20;99.90;;;;;;6309574;22;20043;-72
2021/12/03 02:52:32;;;;;;;6.18;1.30;;;3.10;99.90;;;;;;6309132;22;20073;-73
2021/12/03 02:54:57;;;;;;;6.60;1.00;;;3.10;99.90;;;;;;6309447;22;20011;-73
2021/12/03 02:57:23;;;;;;;2.60;0.80;;;3.10;99.90;;;;;;6309453;22;20023;-73
2021/12/03 02:59:49;;;;;;;2.58;1.08;;;3.10;99.90;;;;;;6309434;22;20541;-73
2021/12/03 03:02:15;;;;;;;8.80;1.95;;;3.10;99.90;;;;;;6282435;22;20015;-73
2021/12/03 03:04:40;;;;;;;8.63;2.00;;;3.00;99.90;;;;;;6309628;22;20281;-73
2021/12/03 03:07:06;;;;;;;3.47;1.50;;;3.00;99.90;;;;;;6309004;22;20080;-73
2021/12/03 03:09:32;;;;;;;8.45;1.98;;;2.90;99.90;;;;;;6309549;22;20096;-73
2021/12/03 03:11:58;;;;;;;4.82;2.20;;;2.90;99.90;;;;;;6283953;22;20094;-73
2021/12/03 03:14:24;;;;;;;6.45;2.13;;;2.90;99.90;;;;;;6311833;22;20026;-72
2021/12/03 03:16:51;;;;;;;5.07;2.42;;;2.80;99.90;;;;;;6311905;22;20299;-72
2021/12/03 03:19:20;;;;;;;6.00;1.70;;;2.80;99.90;;;;;;6284209;22;20029;-73
2021/12/03 03:21:46;;;;;;;7.47;2.47;;;2.80;99.90;;;;;;6310533;22;20431;-72
2021/12/03 03:24:14;;;;;;;6.80;2.10;;;2.80;99.90;;;;;;6257721;22;20033;-72
2021/12/03 03:26:43;;;;;;;6.47;2.20;;;2.90;99.90;;;;;;6312070;22;20023;-72
2021/12/03 03:29:11;;;;;;;4.13;1.98;;;2.90;99.90;;;;;;6311435;22;20019;-72
2021/12/03 03:31:38;;;;;;;8.48;2.08;;;2.90;99.90;;;;;;6311702;22;20316;-72
2021/12/03 03:34:05;;;;;;;10.82;2.42;;;3.00;99.90;;;;;;6311513;22;20030;-73
2021/12/03 03:36:33;;;;;;;12.10;2.70;;;3.00;99.90;;;;;;6310943;22;20080;-73
2021/12/03 03:38:59;;;;;;;8.77;2.67;;;3.00;99.90;;;;;;6311341;22;20091;-73
2021/12/03 03:41:25;;;;;;;7.43;2.00;;;3.00;99.90;;;;;;6310917;22;20445;-73
2021/12/03 03:43:51;;;;;;;7.78;2.35;;;3.10;99.90;;;;;;6311253;22;20096;-73
2021/12/03 03:46:17;;;;;;;6.68;2.25;;;3.20;99.90;;;;;;6311200;22;20015;-72
2021/12/03 03:48:43;;;;;;;12.02;2.40;;;3.10;99.90;;;;;;6284305;22;20069;-72
2021/12/03 03:51:08;;;;;;;7.43;3.38;;;3.10;99.90;;;;;;6310740;22;20086;-73
2021/12/03 03:53:35;;;;;;;8.68;2.17;;;3.20;99.90;;;;;;6311180;22;20057;-72
2021/12/03 03:56:00;;;;;;;8.75;2.70;;;3.10;99.90;;;;;;6310808;22;20480;-71
2021/12/03 03:58:26;;;;;;;9.43;2.92;;;3.10;99.90;;;;;;6311049;22;20058;-70
2021/12/03 04:00:52;;;;;;;9.30;2.97;;;3.20;99.90;;;;;;6311170;22;20098;-73
2021/12/03 04:03:17;;;;;;;5.43;3.00;;;3.10;99.90;;;;;;6283905;22;20065;-72
2021/12/03 04:05:43;;;;;;;10.38;3.53;;;3.20;99.90;;;;;;6310580;22;20034;-72
2021/12/03 04:08:09;;;;;;;9.68;3.20;;;3.20;99.90;;;;;;6310729;22;20019;-72
2021/12/03 04:10:35;;;;;;;8.73;4.22;;;3.20;99.90;;;;;;6311051;22;20015;-73
2021/12/03 04:13:01;;;;;;;11.48;4.18;;;3.10;99.90;;;;;;6283577;22;20023;-73
2021/12/03 04:15:26;;;;;;;6.00;4.28;;;3.10;99.90;;;;;;6310580;22;20012;-72
2021/12/03 04:17:52;;;;;;;7.97;4.50;;;3.10;99.90;;;;;;6310952;22;20034;-72
2021/12/03 04:20:19;;;;;;;10.15;4.95;;;3.10;99.90;;;;;;6310304;22;20438;-72
2021/12/03 04:22:47;;;;;;;10.68;5.88;;;3.10;99.90;;;;;;6311037;22;20022;-72
2021/12/03 04:25:16;;;;;;;13.63;4.85;;;3.10;99.90;;;;;;6310453;22;20438;-73
2021/12/03 04:27:43;;;;;;;12.18;5.40;;;3.10;99.90;;;;;;6310813;22;20376;-73
2021/12/03 04:30:13;;;;;;;15.20;4.75;;;3.10;99.90;;;;;;6310784;22;20412;-72
2021/12/03 04:32:39;;;;;;;12.65;4.47;;;3.10;99.90;;;;;;6310636;22;20300;-73
2021/12/03 04:35:05;;;;;;;12.82;5.40;;;3.10;99.90;;;;;;6310610;22;20094;-72
2021/12/03 04:37:31;;;;;;;11.85;5.13;;;3.20;99.90;;;;;;6283650;22;20465;-73
2021/12/03 04:39:57;;;;;;;16.33;4.90;;;3.20;99.90;;;;;;6310661;22;20023;-72
2021/12/03 04:42:22;;;;;;;11.82;5.25;;;3.20;99.90;;;;;;6310537;22;20034;-73
2021/12/03 04:44:48;;;;;;;14.15;4.70;;;3.20;99.90;;;;;;6310372;22;20112;-72
2021/12/03 04:47:13;;;;;;;14.77;3.83;;;3.20;99.90;;;;;;6310310;22;20026;-73
2021/12/03 04:49:39;;;;;;;12.52;4.10;;;3.30;99.90;;;;;;6310866;22;20008;-73
2021/12/03 04:52:05;;;;;;;10.77;3.80;;;3.20;99.90;;;;;;6310767;22;20019;-73
2021/12/03 04:54:31;;;;;;;8.63;3.60;;;3.30;99.90;;;;;;6310324;22;20080;-73
2021/12/03 04:56:57;;;;;;;10.40;3.97;;;3.30;99.90;;;;;;6310215;22;20019;-72
2021/12/03 04:59:23;;;;;;;15.02;3.78;;;3.30;99.90;;;;;;6282905;22;20011;-72
2021/12/03 05:01:49;;;;;;;9.52;3.92;;;3.30;99.90;;;;;;6310113;22;20012;-72
2021/12/03 05:04:14;;;;;;;8.55;3.25;;;3.30;99.90;;;;;;6310243;22;20042;-72
2021/12/03 05:06:55;;;;;;;8.00;3.25;;;3.30;99.90;;;;;;6310715;22;20069;-72
2021/12/03 05:09:21;;;;;;;8.70;3.22;;;3.40;99.90;;;;;;6310492;22;20072;-72
2021/12/03 05:11:47;;;;;;;9.98;3.67;;;3.40;99.90;;;;;;6310720;22;20019;-72
2021/12/03 05:14:13;;;;;;;9.80;3.22;;;3.50;99.90;;;;;;6309822;22;20046;-72
2021/12/03 05:16:39;;;;;;;7.72;3.13;;;3.50;99.90;;;;;;6310012;22;20019;-72
2021/12/03 05:19:04;;;;;;;11.43;2.97;;;3.50;99.90;;;;;;6310390;22;20020;-72
2021/12/03 05:21:30;;;;;;;11.25;3.03;;;3.60;99.90;;;;;;6310181;22;20090;-73
2021/12/03 05:23:56;;;;;;;6.45;2.65;;;3.60;99.90;;;;;;6310132;22;20054;-72
2021/12/03 05:26:22;;;;;;;6.93;2.88;;;3.60;99.90;;;;;;6310258;22;20015;-73
2021/12/03 05:28:48;;;;;;;8.52;3.28;;;3.60;99.90;;;;;;6310338;22;20023;-73
2021/12/03 05:31:13;;;;;;;8.48;2.80;;;3.70;99.90;;;;;;6309873;22;20057;-72
2021/12/03 05:33:39;;;;;;;8.07;2.20;;;3.70;99.90;;;;;;6282882;22;20030;-72
2021/12/03 05:36:05;;;;;;;11.13;3.50;;;3.60;99.90;;;;;;6310423;22;20019;-74
2021/12/03 05:38:31;;;;;;;11.52;3.35;;;3.60;99.90;;;;;;6310003;22;20015;-73
2021/12/03 05:40:57;;;;;;;10.93;2.90;;;3.60;99.90;;;;;;6309678;22;20021;-74
2021/12/03 05:43:22;;;;;;;8.75;2.72;;;3.60;99.90;;;;;;6309887;22;20011;-74
2021/12/03 05:45:48;;;;;;;11.68;3.40;;;3.50;99.90;;;;;;6309508;22;20054;-74
2021/12/03 05:48:14;;;;;;;9.05;2.35;;;3.50;99.90;;;;;;6310081;22;20011;-74
2021/12/03 05:50:40;;;;;;;10.00;2.15;;;3.50;99.90;;;;;;6309740;22;20034;-74
2021/12/03 05:53:06;;;;;;;12.38;2.35;;;3.50;99.90;;;;;;6310074;22;20079;-75
2021/12/03 05:55:32;;;;;;;12.48;1.77;;;3.50;99.90;;;;;;6309985;22;20442;-73
2021/12/03 05:57:58;;;;;;;8.57;2.35;;;3.60;99.90;;;;;;6309810;22;20012;-74
2021/12/03 06:00:34;;;;;;;7.82;2.42;;;3.60;99.90;;;;;;6309171;22;20424;-73
2021/12/03 06:03:00;;;;;;;9.70;2.80;;;3.60;99.90;;;;;;6282702;22;20086;-73
2021/12/03 06:05:28;;;;;;;16.73;3.42;;;3.50;99.90;;;;;;6309456;22;20062;-73
2021/12/03 06:07:54;;;;;;;9.65;3.28;;;3.50;99.90;;;;;;6310193;22;20331;-75
2021/12/03 06:10:20;;;;;;;10.18;3.33;;;3.50;99.90;;;;;;6309851;22;20011;-75
2021/12/03 06:12:47;;;;;;;8.73;3.67;;;3.60;99.90;;;;;;6309605;22;20018;-74
2021/12/03 06:15:13;;;;;;;14.35;3.70;;;3.50;99.90;;;;;;6309042;22;20461;-75
2021/12/03 06:17:39;;;;;;;7.32;3.47;;;3.60;99.90;;;;;;6309605;22;20030;-72
2021/12/03 06:20:06;;;;;;;11.82;4.30;;;3.60;99.90;;;;;;6309581;22;20459;-73
2021/12/03 06:22:32;;;;;;;10.77;4.10;;;3.60;99.90;;;;;;6309635;22;20064;-74
2021/12/03 06:24:57;;;;;;;10.10;3.80;;;3.50;99.90;;;;;;6309670;22;20404;-72
2021/12/03 06:27:25;;;;;;;11.70;3.75;;;3.50;99.90;;;;;;6309121;22;20017;-73
2021/12/03 06:29:51;;;;;;;19.88;4.10;;;3.50;99.90;;;;;;6309264;22;20424;-72
2021/12/03 06:32:17;;;;;;;9.90;3.45;;;3.60;99.90;;;;;;6309645;22;20037;-73
2021/12/03 06:34:43;;;;;;;16.30;4.00;;;3.50;99.90;;;;;;6308579;22;20027;-73
2021/12/03 06:37:09;;;;;;;14.95;3.90;;;3.50;99.90;;;;;;6309574;22;20289;-73
2021/12/03 06:39:35;;;;;;;11.77;4.10;;;3.50;99.90;;;;;;6309474;22;20015;-73
2021/12/03 06:42:01;;;;;;;10.77;4.47;;;3.50;99.90;;;;;;6309399;22;20038;-73
2021/12/03 06:44:27;;;;;;;12.63;4.50;;;3.50;99.90;;;;;;6309713;22;20019;-74
2021/12/03 06:46:53;;;;;;;9.02;3.90;;;3.60;99.90;;;;;;6309265;22;20027;-73
2021/12/03 06:49:22;;;;;;;9.50;4.07;;;3.60;99.90;;;;;;6309000;22;20026;-72
2021/12/03 06:51:50;;;;;;;9.43;4.20;;;3.50;99.90;;;;;;6309199;22;20012;-72
2021/12/03 06:54:25;;;;;;;16.65;5.55;;;3.60;99.90;;;;;;6309290;22;20011;-73
2021/12/03 06:56:52;;;;;;;15.82;5.93;;;3.60;99.90;;;;;;6309283;22;20093;-73
2021/12/03 06:59:22;;;;;;;11.63;5.53;;;3.70;99.90;;;;;;6309353;22;20012;-72
2021/12/03 07:01:56;;;;;;;13.93;6.53;;;3.60;99.90;;;;;;6309236;22;20015;-73
2021/12/03 07:04:23;;;;;;;16.00;6.53;;;3.60;99.90;;;;;;6309407;22;20280;-73
2021/12/03 07:06:50;;;;;;;16.40;6.75;;;3.70;99.90;;;;;;6309223;22;20035;-72
2021/12/03 07:09:16;;;;;;;17.85;7.45;;;3.70;99.90;;;;;;6308903;22;20362;-72
2021/12/03 07:11:42;;;;;;;21.20;7.30;;;3.60;99.90;;;;;;6309342;22;20285;-73
2021/12/03 07:14:08;;;;;;;16.92;7.18;;;3.70;99.90;;;;;;6309357;22;20021;-73
2021/12/03 07:16:34;;;;;;;19.67;7.38;;;3.70;99.90;;;;;;6308701;22;20446;-73
2021/12/03 07:18:59;;;;;;;21.08;8.40;;;3.60;99.90;;;;;;6309113;22;20038;-73
2021/12/03 07:21:26;;;;;;;17.13;8.55;;;3.60;99.90;;;;;;6309785;22;20395;-73
2021/12/03 07:23:52;;;;;;;18.65;7.72;;;3.70;99.90;;;;;;6308990;22;20344;-72
2021/12/03 07:26:20;;;;;;;16.55;8.38;;;3.70;99.90;;;;;;6309930;22;20289;-73
2021/12/03 07:28:45;;;;;;;22.30;8.20;;;3.70;99.90;;;;;;6308936;22;20018;-72
2021/12/03 07:31:11;;;;;;;15.00;7.60;;;3.80;99.90;;;;;;6309324;22;20405;-73
2021/12/03 07:33:38;;;;;;;20.13;8.13;;;3.80;99.90;;;;;;6309187;22;20011;-73
2021/12/03 07:36:05;;;;;;;15.50;7.72;;;3.80;99.90;;;;;;6309283;22;20026;-73
2021/12/03 07:38:32;;;;;;;24.15;6.82;;;3.80;99.90;;;;;;6308867;22;20019;-72
2021/12/03 07:40:57;;;;;;;15.30;5.88;;;3.80;99.90;;;;;;6309156;22;20019;-72
2021/12/03 07:43:23;;;;;;;13.65;5.45;;;3.80;99.90;;;;;;6308615;22;20106;-73
2021/12/03 07:45:49;;;;;;;18.20;5.43;;;3.90;99.90;;;;;;6309164;22;20011;-72
2021/12/03 07:48:15;;;;;;;19.17;4.72;;;4.00;99.90;;;;;;6309063;22;20015;-74
2021/12/03 07:50:41;;;;;;;14.07;4.97;;;4.00;99.90;;;;;;6309202;22;20137;-73
2021/12/03 07:53:08;;;;;;;13.70;3.95;;;3.90;99.90;;;;;;6308772;22;20022;-73
2021/12/03 07:55:35;;;;;;;11.60;3.50;;;4.00;99.90;;;;;;6309002;22;20011;-72
2021/12/03 07:58:02;;;;;;;12.57;3.17;;;4.10;99.90;;;;;;6310353;22;20015;-74
2021/12/03 08:00:27;;;;;;;8.30;2.80;;;4.10;99.90;;;;;;6284292;22;20021;-73
2021/12/03 08:02:53;;;;;;;9.20;2.65;;;4.10;99.90;;;;;;6310967;22;20380;-73
2021/12/03 08:05:18;;;;;;;11.38;2.78;;;4.20;99.90;;;;;;6310465;22;20019;-72
2021/12/03 08:07:46;;;;;;;9.18;2.72;;;4.20;99.90;;;;;;6310263;22;20015;-74
2021/12/03 08:10:14;;;;;;;11.45;3.30;;;4.20;99.90;;;;;;6310440;22;20015;-72
2021/12/03 08:12:40;;;;;;;11.07;3.13;;;4.20;99.90;;;;;;6310930;22;20022;-73
2021/12/03 08:15:07;;;;;;;11.52;2.70;;;4.20;99.90;;;;;;6311090;22;20025;-74
2021/12/03 08:17:33;;;;;;;13.30;3.00;;;4.30;99.90;;;;;;6309846;22;20015;-73
2021/12/03 08:19:58;;;;;;;12.52;3.00;;;4.30;99.90;;;;;;6310139;22;20023;-73
2021/12/03 08:22:24;;;;;;;8.70;3.15;;;4.30;99.90;;;;;;6310629;22;20022;-73
2021/12/03 08:24:49;;;;;;;12.98;3.35;;;4.40;99.90;;;;;;6310775;22;20351;-73
2021/12/03 08:27:15;;;;;;;9.85;3.08;;;4.40;99.90;;;;;;6311030;22;20312;-73
2021/12/03 08:29:41;;;;;;;8.70;3.50;;;4.40;99.90;;;;;;6284164;22;20386;-73
2021/12/03 08:32:07;;;;;;;15.02;3.35;;;4.40;99.90;;;;;;6310638;22;20030;-73
2021/12/03 08:34:32;;;;;;;15.70;4.00;;;4.40;99.90;;;;;;6310616;22;20312;-73
2021/12/03 08:36:58;;;;;;;12.07;3.63;;;4.40;99.90;;;;;;6310419;22;20220;-73
2021/12/03 08:39:24;;;;;;;13.43;4.18;;;4.40;99.90;;;;;;6311080;22;20030;-73
2021/12/03 08:41:49;;;;;;;8.20;3.35;;;4.40;99.90;;;;;;6310478;22;20012;-72
2021/12/03 08:44:15;;;;;;;14.60;3.80;;;4.50;99.90;;;;;;6310482;22;20041;-73
2021/12/03 08:46:41;;;;;;;17.88;4.45;;;4.50;99.90;;;;;;6310338;22;20022;-73
2021/12/03 08:49:11;;;;;;;19.67;4.72;;;4.50;99.90;;;;;;6283620;22;20373;-72
2021/12/03 08:51:52;;;;;;;11.40;3.05;;;4.50;99.90;;;;;;6309947;22;20023;-73
2021/12/03 08:55:18;;;;;;;10.63;2.90;;;4.50;99.90;;;;;;6310452;22;20418;-73
2021/12/03 08:57:12;;;;;;;10.50;3.47;;;4.50;99.90;;;;;;6276942;22;20019;-72
2021/12/03 08:59:38;;;;;;;8.43;2.85;;;4.50;99.90;;;;;;6310018;22;20046;-72
2021/12/03 09:02:05;;;;;;;10.38;3.90;;;4.50;99.90;;;;;;6310384;22;20015;-72
2021/12/03 09:04:30;;;;;;;13.90;3.38;;;4.50;99.90;;;;;;6310390;22;20047;-73
2021/12/03 09:07:00;;;;;;;10.20;3.35;;;4.50;99.90;;;;;;6310450;22;20065;-73
2021/12/03 09:09:26;;;;;;;14.48;4.57;;;4.50;99.90;;;;;;6310514;22;20015;-73
2021/12/03 09:11:52;;;;;;;9.52;2.78;;;4.50;99.90;;;;;;6309772;22;20427;-74
2021/12/03 09:14:25;;;;;;;10.43;3.20;;;4.50;99.90;;;;;;6310240;22;20019;-73
2021/12/03 09:16:59;;;;;;;10.60;3.33;;;4.50;99.90;;;;;;6310514;22;20354;-73
2021/12/03 09:19:32;;;;;;;12.55;3.13;;;4.50;99.90;;;;;;6310375;22;20026;-73
2021/12/03 09:21:58;;;;;;;8.52;2.97;;;4.60;99.90;;;;;;6310361;22;20022;-73
2021/12/03 09:24:37;;;;;;;17.63;3.63;;;4.60;99.90;;;;;;6310008;22;20042;-73
2021/12/03 09:27:03;;;;;;;10.95;2.80;;;4.60;99.90;;;;;;6309886;22;20011;-73
2021/12/03 09:29:31;;;;;;;10.60;2.78;;;4.70;99.90;;;;;;6310635;22;20011;-73
2021/12/03 09:31:58;;;;;;;7.95;2.97;;;4.70;99.90;;;;;;6283041;22;20434;-73
2021/12/03 09:34:24;;;;;;;15.00;3.47;;;4.80;99.90;;;;;;6310557;22;20091;-73
2021/12/03 09:36:50;;;;;;;11.30;3.15;;;4.70;99.90;;;;;;6309725;22;20019;-73
2021/12/03 09:39:21;;;;;;;9.25;2.95;;;4.80;99.90;;;;;;6283112;22;20415;-73
2021/12/03 09:41:49;;;;;;;8.15;2.95;;;4.80;99.90;;;;;;6309868;22;20026;-73
2021/12/03 09:44:16;;;;;;;12.93;3.35;;;4.80;99.90;;;;;;6309443;22;20371;-73
2021/12/03 09:46:42;;;;;;;10.13;2.42;;;4.90;99.90;;;;;;6310264;22;20355;-73
2021/12/03 09:51:45;;;;;;;11.40;2.95;;;4.90;99.90;;;;;;6309890;22;20027;-73
2021/12/03 09:54:32;;;;;;;8.38;2.90;;;4.90;99.90;;;;;;6309509;22;20007;-73
2021/12/03 09:57:06;;;;;;;16.48;3.22;;;4.90;99.90;;;;;;6309588;22;20415;-74
2021/12/03 10:02:16;;;;;;;12.90;3.88;;;4.90;99.90;;;;;;6309864;22;20016;-74
2021/12/03 10:20:53;;;;;;;20.38;4.03;;;4.80;99.90;;;;;;6309507;22;20023;-72
2021/12/03 10:29:15;;;;;;;15.20;4.20;;;4.60;99.90;;;;;;6309380;22;20030;-74
2021/12/03 10:37:42;;;;;;;15.55;4.13;;;4.50;99.90;;;;;;6309478;22;20023;-74
2021/12/03 10:41:07;;;;;;;11.75;4.22;;;4.50;99.90;;;;;;6306352;22;20015;-74
2021/12/03 10:49:22;;;;;;;19.85;5.78;;;4.30;99.90;;;;;;6226651;22;20019;-76
2021/12/03 10:57:00;;;;;;;19.40;5.95;;;4.10;99.90;;;;;;6309095;22;20023;-75
2021/12/03 11:13:12;;;;;;;12.60;6.07;;;3.90;99.90;;;;;;6309489;22;20118;-73
2021/12/03 11:16:08;;;;;;;11.68;5.15;;;3.90;99.90;;;;;;6308349;22;20427;-73
2021/12/03 11:29:07;;;;;;;17.70;9.40;;;3.90;99.90;;;;;;6309141;22;20019;-73
2021/12/03 11:33:43;;;;;;;17.10;7.38;;;3.80;99.90;;;;;;6309113;22;20038;-72
2021/12/03 12:31:05;;;;;;;19.10;10.65;;;4.10;99.90;;;;;;6310871;22;20094;-72
2021/12/03 12:58:08;;;;;;;23.88;14.50;;;4.10;99.90;;;;;;6310159;22;20431;-72
2021/12/03 13:22:31;;;;;;;23.23;14.52;;;4.00;99.90;;;;;;6310035;22;20027;-72
2021/12/03 14:20:05;;;;;;;25.20;13.80;;;4.10;99.90;;;;;;6309313;22;20019;-73
2021/12/03 14:34:17;;;;;;;29.40;19.88;;;4.10;99.90;;;;;;6309566;22;20073;-72
2021/12/03 14:36:20;;;;;;;23.17;17.00;;;4.10;99.90;;;;;;6308984;22;20123;-73
2021/12/03 14:41:32;;;;;;;27.40;17.67;;;4.10;99.90;;;;;;6309810;22;20024;-74
2021/12/03 14:44:14;;;;;;;29.40;20.25;;;4.10;99.90;;;;;;6308895;22;20311;-74
2021/12/03 14:49:48;;;;;;;38.15;22.50;;;4.20;99.90;;;;;;6279782;22;20066;-74
2021/12/03 14:52:33;;;;;;;35.38;23.50;;;4.10;99.90;;;;;;6309303;22;20292;-73
2021/12/03 14:55:03;;;;;;;39.85;20.65;;;4.20;99.90;;;;;;6309262;22;20038;-73
2021/12/03 15:03:29;;;;;;;31.80;22.90;;;4.20;99.90;;;;;;6308463;22;20449;-73
2021/12/03 15:06:11;;;;;;;29.00;20.80;;;4.20;99.90;;;;;;6283859;22;20280;-73
2021/12/03 15:08:58;;;;;;;34.58;25.25;;;4.30;99.90;;;;;;6312913;22;20090;-74
2021/12/03 15:17:53;;;;;;;30.00;22.50;;;4.30;99.90;;;;;;6254804;22;20250;-74
2021/12/03 15:25:25;;;;;;;35.38;26.40;;;4.40;99.90;;;;;;6312480;22;20019;-73
2021/12/03 15:36:12;;;;;;;23.30;18.30;;;4.40;99.90;;;;;;6312722;22;20015;-74
2021/12/03 15:41:16;;;;;;;34.85;26.13;;;4.40;99.90;;;;;;6312456;22;20094;-74
2021/12/03 15:55:02;;;;;;;38.00;26.02;;;4.50;99.90;;;;;;6312056;22;20015;-74
2021/12/03 15:58:02;;;;;;;35.00;24.27;;;4.50;99.90;;;;;;6312003;22;20038;-74
2021/12/03 16:08:22;;;;;;;34.33;22.85;;;4.50;99.90;;;;;;6312558;22;20074;-76
2021/12/03 16:13:29;;;;;;;29.25;20.77;;;4.60;99.90;;;;;;6312399;22;20023;-75
2021/12/03 16:24:25;;;;;;;30.87;21.93;;;4.60;99.90;;;;;;6310695;22;20015;-74
2021/12/03 16:27:14;;;;;;;38.42;25.88;;;4.60;99.90;;;;;;6310287;22;20034;-75
2021/12/03 16:46:24;;;;;;;26.88;17.95;;;4.70;99.90;;;;;;6310562;22;20023;-76
2021/12/03 16:51:52;;;;;;;29.20;20.75;;;4.60;99.90;;;;;;6262623;22;20038;-71
2021/12/03 16:54:27;;;;;;;34.20;22.92;;;4.60;99.90;;;;;;6310618;22;20043;-72
2021/12/03 16:56:54;;;;;;;30.95;19.70;;;4.60;99.90;;;;;;6309778;22;20019;-73
2021/12/03 16:59:20;;;;;;;30.83;21.65;;;4.70;99.90;;;;;;6307641;22;20022;-72
2021/12/03 17:18:02;;;;;;;45.03;24.17;;;4.70;99.90;;;;;;6309759;22;20050;-73
2021/12/03 17:47:20;;;;;;;37.92;21.48;;;4.80;99.90;;;;;;6282701;22;20015;-73
2021/12/03 17:55:24;;;;;;;40.30;22.15;;;4.80;99.90;;;;;;6309170;22;20423;-75
2021/12/03 17:58:01;;;;;;;36.85;21.42;;;4.80;99.90;;;;;;6309502;22;20346;-72
2021/12/03 18:00:47;;;;;;;34.15;20.98;;;4.80;99.90;;;;;;6309305;22;20064;-72
2021/12/03 18:03:25;;;;;;;30.83;17.77;;;4.80;99.90;;;;;;6309550;22;20419;-72
2021/12/03 18:08:36;;;;;;;42.60;23.40;;;4.90;99.90;;;;;;6309708;22;20038;-72
2021/12/03 18:44:26;;;;;;;43.28;24.17;;;4.90;99.90;;;;;;6308828;22;20450;-72
2021/12/03 18:51:56;;;;;;;41.83;23.53;;;5.00;99.90;;;;;;6308756;22;20027;-72
2021/12/03 18:54:37;;;;;;;47.17;26.70;;;5.10;99.90;;;;;;6309745;22;20023;-71
2021/12/03 18:57:26;;;;;;;54.15;28.33;;;5.10;99.90;;;;;;6308144;22;20038;-74
2021/12/03 19:00:04;;;;;;;35.45;20.38;;;5.10;99.90;;;;;;6308394;22;20020;-74
2021/12/03 19:02:31;;;;;;;58.53;30.08;;;5.10;99.90;;;;;;6309063;22;20015;-72
2021/12/03 19:05:03;;;;;;;59.25;30.33;;;5.10;99.90;;;;;;6308053;22;20023;-70
2021/12/03 19:07:38;;;;;;;52.67;29.05;;;5.00;99.90;;;;;;6309292;22;20026;-73
2021/12/03 19:10:09;;;;;;;56.38;29.73;;;5.10;99.90;;;;;;6308884;22;20411;-71
2021/12/03 19:12:38;;;;;;;64.57;31.90;;;5.10;99.90;;;;;;6308695;22;20008;-72
2021/12/03 19:15:06;;;;;;;54.85;27.38;;;5.00;99.90;;;;;;6309315;22;20101;-72
2021/12/03 19:17:37;;;;;;;59.88;30.38;;;5.10;99.90;;;;;;6309447;22;20011;-71
2021/12/03 19:20:05;;;;;;;60.08;30.80;;;5.10;99.90;;;;;;6307728;22;20094;-73
2021/12/03 19:22:31;;;;;;;64.25;32.85;;;5.10;99.90;;;;;;6309175;22;20034;-73
2021/12/03 19:24:58;;;;;;;66.50;31.98;;;5.10;99.90;;;;;;6308714;22;20058;-71
2021/12/03 19:27:26;;;;;;;74.47;36.88;;;5.10;99.90;;;;;;6308697;22;20023;-74
2021/12/03 19:29:54;;;;;;;70.40;35.97;;;5.10;99.90;;;;;;6308988;22;20037;-73
2021/12/03 19:32:23;;;;;;;67.78;37.65;;;5.10;99.90;;;;;;6309378;22;20074;-75
2021/12/03 19:34:49;;;;;;;77.72;37.10;;;5.10;99.90;;;;;;6309308;22;20016;-74
2021/12/03 19:37:16;;;;;;;75.55;37.42;;;5.10;99.90;;;;;;6309030;22;20034;-74
2021/12/03 19:39:41;;;;;;;77.57;37.25;;;5.20;99.90;;;;;;6308981;22;20019;-74
2021/12/03 19:42:12;;;;;;;75.32;38.03;;;5.10;99.90;;;;;;6309266;22;20015;-77
2021/12/03 19:44:43;;;;;;;69.15;35.63;;;5.10;99.90;;;;;;6282678;22;20050;-74